sensor_id;sensor_type;location;lat;lon;timestamp;P1;durP1;ratioP1;P2;durP2;ratioP2
39020;SDS011;25188;51.958;5.842;2023-03-19T00:00:06;4.72;;;0.77;;
39020;SDS011;25188;51.958;5.842;2023-03-19T00:02:32;1.75;;;0.70;;
39020;SDS011;25188;51.958;5.842;2023-03-19T00:04:58;1.80;;;0.60;;
39020;SDS011;25188;51.958;5.842;2023-03-19T00:07:24;1.73;;;0.52;;
39020;SDS011;25188;51.958;5.842;2023-03-19T00:09:50;2.07;;;0.70;;
39020;SDS011;25188;51.958;5.842;2023-03-19T00:12:15;1.85;;;0.45;;
39020;SDS011;25188;51.958;5.842;2023-03-19T00:14:41;1.70;;;0.43;;
39020;SDS011;25188;51.958;5.842;2023-03-19T00:17:07;2.17;;;0.63;;
39020;SDS011;25188;51.958;5.842;2023-03-19T00:19:33;1.85;;;0.50;;
39020;SDS011;25188;51.958;5.842;2023-03-19T00:21:59;2.72;;;0.60;;
39020;SDS011;25188;51.958;5.842;2023-03-19T00:24:24;2.03;;;0.47;;
39020;SDS011;25188;51.958;5.842;2023-03-19T00:26:50;1.53;;;0.40;;
39020;SDS011;25188;51.958;5.842;2023-03-19T00:29:16;1.65;;;0.55;;
39020;SDS011;25188;51.958;5.842;2023-03-19T00:31:42;2.33;;;0.60;;
39020;SDS011;25188;51.958;5.842;2023-03-19T00:34:07;1.30;;;0.70;;
39020;SDS011;25188;51.958;5.842;2023-03-19T00:36:33;1.85;;;0.60;;
39020;SDS011;25188;51.958;5.842;2023-03-19T00:38:59;1.40;;;0.57;;
39020;SDS011;25188;51.958;5.842;2023-03-19T00:41:26;1.63;;;0.70;;
39020;SDS011;25188;51.958;5.842;2023-03-19T00:43:53;2.03;;;0.53;;
39020;SDS011;25188;51.958;5.842;2023-03-19T00:46:19;1.95;;;0.57;;
39020;SDS011;25188;51.958;5.842;2023-03-19T00:48:45;2.33;;;0.65;;
39020;SDS011;25188;51.958;5.842;2023-03-19T00:51:11;2.03;;;0.80;;
39020;SDS011;25188;51.958;5.842;2023-03-19T00:53:38;1.95;;;0.70;;
39020;SDS011;25188;51.958;5.842;2023-03-19T00:56:06;2.15;;;0.73;;
39020;SDS011;25188;51.958;5.842;2023-03-19T00:58:33;2.33;;;0.70;;
39020;SDS011;25188;51.958;5.842;2023-03-19T01:00:59;1.65;;;0.80;;
39020;SDS011;25188;51.958;5.842;2023-03-19T01:03:26;3.25;;;0.80;;
39020;SDS011;25188;51.958;5.842;2023-03-19T01:05:52;2.97;;;0.75;;
39020;SDS011;25188;51.958;5.842;2023-03-19T01:08:17;2.67;;;0.90;;
39020;SDS011;25188;51.958;5.842;2023-03-19T01:10:43;1.55;;;0.68;;
39020;SDS011;25188;51.958;5.842;2023-03-19T01:13:10;2.90;;;0.73;;
39020;SDS011;25188;51.958;5.842;2023-03-19T01:15:37;2.38;;;0.73;;
39020;SDS011;25188;51.958;5.842;2023-03-19T01:18:03;1.90;;;0.70;;
39020;SDS011;25188;51.958;5.842;2023-03-19T01:20:29;2.08;;;0.60;;
39020;SDS011;25188;51.958;5.842;2023-03-19T01:22:55;2.97;;;0.82;;
39020;SDS011;25188;51.958;5.842;2023-03-19T01:25:21;2.47;;;0.75;;
39020;SDS011;25188;51.958;5.842;2023-03-19T01:27:47;2.88;;;0.90;;
39020;SDS011;25188;51.958;5.842;2023-03-19T01:30:13;2.33;;;0.70;;
39020;SDS011;25188;51.958;5.842;2023-03-19T01:32:39;3.13;;;0.85;;
39020;SDS011;25188;51.958;5.842;2023-03-19T01:35:05;3.10;;;0.68;;
39020;SDS011;25188;51.958;5.842;2023-03-19T01:37:31;1.60;;;0.77;;
39020;SDS011;25188;51.958;5.842;2023-03-19T01:39:57;2.28;;;0.90;;
39020;SDS011;25188;51.958;5.842;2023-03-19T01:42:23;1.50;;;0.60;;
39020;SDS011;25188;51.958;5.842;2023-03-19T01:44:49;2.05;;;1.00;;
39020;SDS011;25188;51.958;5.842;2023-03-19T01:47:22;4.32;;;1.35;;
39020;SDS011;25188;51.958;5.842;2023-03-19T01:49:53;3.90;;;0.90;;
39020;SDS011;25188;51.958;5.842;2023-03-19T01:52:20;2.67;;;1.00;;
39020;SDS011;25188;51.958;5.842;2023-03-19T01:54:49;3.17;;;1.00;;
39020;SDS011;25188;51.958;5.842;2023-03-19T01:57:17;3.83;;;1.30;;
39020;SDS011;25188;51.958;5.842;2023-03-19T01:59:53;3.22;;;1.30;;
39020;SDS011;25188;51.958;5.842;2023-03-19T02:02:28;3.47;;;1.27;;
39020;SDS011;25188;51.958;5.842;2023-03-19T02:05:05;3.67;;;1.13;;
39020;SDS011;25188;51.958;5.842;2023-03-19T02:07:36;4.30;;;1.23;;
39020;SDS011;25188;51.958;5.842;2023-03-19T02:10:06;3.27;;;1.27;;
39020;SDS011;25188;51.958;5.842;2023-03-19T02:12:34;2.78;;;1.20;;
39020;SDS011;25188;51.958;5.842;2023-03-19T02:15:00;2.63;;;1.20;;
39020;SDS011;25188;51.958;5.842;2023-03-19T02:17:26;3.43;;;1.13;;
39020;SDS011;25188;51.958;5.842;2023-03-19T02:22:26;3.07;;;1.20;;
39020;SDS011;25188;51.958;5.842;2023-03-19T02:27:28;5.28;;;1.52;;
39020;SDS011;25188;51.958;5.842;2023-03-19T02:29:53;3.57;;;1.10;;
39020;SDS011;25188;51.958;5.842;2023-03-19T02:32:19;4.68;;;1.35;;
39020;SDS011;25188;51.958;5.842;2023-03-19T02:34:46;4.17;;;1.40;;
39020;SDS011;25188;51.958;5.842;2023-03-19T02:37:19;2.50;;;1.03;;
39020;SDS011;25188;51.958;5.842;2023-03-19T02:40:03;3.22;;;1.20;;
39020;SDS011;25188;51.958;5.842;2023-03-19T02:42:35;2.90;;;1.10;;
39020;SDS011;25188;51.958;5.842;2023-03-19T02:45:01;3.47;;;1.70;;
39020;SDS011;25188;51.958;5.842;2023-03-19T02:47:26;4.87;;;1.90;;
39020;SDS011;25188;51.958;5.842;2023-03-19T02:49:52;3.53;;;1.25;;
39020;SDS011;25188;51.958;5.842;2023-03-19T02:52:18;2.40;;;1.07;;
39020;SDS011;25188;51.958;5.842;2023-03-19T02:54:43;3.60;;;1.70;;
39020;SDS011;25188;51.958;5.842;2023-03-19T02:57:10;3.97;;;1.60;;
39020;SDS011;25188;51.958;5.842;2023-03-19T02:59:37;4.75;;;1.50;;
39020;SDS011;25188;51.958;5.842;2023-03-19T03:02:03;3.20;;;1.37;;
39020;SDS011;25188;51.958;5.842;2023-03-19T03:04:29;2.90;;;1.20;;
39020;SDS011;25188;51.958;5.842;2023-03-19T03:06:56;2.72;;;1.25;;
39020;SDS011;25188;51.958;5.842;2023-03-19T03:09:23;5.07;;;1.70;;
39020;SDS011;25188;51.958;5.842;2023-03-19T03:11:48;3.33;;;1.48;;
39020;SDS011;25188;51.958;5.842;2023-03-19T03:14:17;3.27;;;1.20;;
39020;SDS011;25188;51.958;5.842;2023-03-19T03:16:43;4.07;;;1.65;;
39020;SDS011;25188;51.958;5.842;2023-03-19T03:19:09;4.10;;;1.50;;
39020;SDS011;25188;51.958;5.842;2023-03-19T03:21:35;5.15;;;1.55;;
39020;SDS011;25188;51.958;5.842;2023-03-19T03:24:01;4.22;;;1.60;;
39020;SDS011;25188;51.958;5.842;2023-03-19T03:26:26;3.72;;;1.63;;
39020;SDS011;25188;51.958;5.842;2023-03-19T03:28:52;4.03;;;1.45;;
39020;SDS011;25188;51.958;5.842;2023-03-19T03:31:18;4.23;;;1.50;;
39020;SDS011;25188;51.958;5.842;2023-03-19T03:33:44;5.00;;;1.90;;
39020;SDS011;25188;51.958;5.842;2023-03-19T03:36:10;4.63;;;2.27;;
39020;SDS011;25188;51.958;5.842;2023-03-19T03:38:36;5.33;;;2.77;;
39020;SDS011;25188;51.958;5.842;2023-03-19T03:41:02;3.78;;;1.92;;
39020;SDS011;25188;51.958;5.842;2023-03-19T03:43:28;5.50;;;2.17;;
39020;SDS011;25188;51.958;5.842;2023-03-19T03:45:54;4.10;;;1.90;;
39020;SDS011;25188;51.958;5.842;2023-03-19T03:48:20;4.82;;;2.40;;
39020;SDS011;25188;51.958;5.842;2023-03-19T03:50:46;5.85;;;2.70;;
39020;SDS011;25188;51.958;5.842;2023-03-19T03:53:12;5.38;;;2.38;;
39020;SDS011;25188;51.958;5.842;2023-03-19T03:55:39;6.15;;;2.90;;
39020;SDS011;25188;51.958;5.842;2023-03-19T03:58:05;6.82;;;2.95;;
39020;SDS011;25188;51.958;5.842;2023-03-19T04:00:31;4.82;;;2.38;;
39020;SDS011;25188;51.958;5.842;2023-03-19T04:02:56;5.80;;;2.45;;
39020;SDS011;25188;51.958;5.842;2023-03-19T04:05:23;6.57;;;2.85;;
39020;SDS011;25188;51.958;5.842;2023-03-19T04:07:48;6.97;;;3.65;;
39020;SDS011;25188;51.958;5.842;2023-03-19T04:10:14;5.10;;;3.00;;
39020;SDS011;25188;51.958;5.842;2023-03-19T04:12:40;5.10;;;2.80;;
39020;SDS011;25188;51.958;5.842;2023-03-19T04:15:06;5.55;;;3.05;;
39020;SDS011;25188;51.958;5.842;2023-03-19T04:17:35;5.37;;;3.00;;
39020;SDS011;25188;51.958;5.842;2023-03-19T04:20:01;4.78;;;3.13;;
39020;SDS011;25188;51.958;5.842;2023-03-19T04:22:29;5.65;;;3.38;;
39020;SDS011;25188;51.958;5.842;2023-03-19T04:24:55;5.57;;;3.23;;
39020;SDS011;25188;51.958;5.842;2023-03-19T04:27:21;6.32;;;3.63;;
39020;SDS011;25188;51.958;5.842;2023-03-19T04:29:46;6.67;;;3.93;;
39020;SDS011;25188;51.958;5.842;2023-03-19T04:32:12;8.87;;;3.93;;
39020;SDS011;25188;51.958;5.842;2023-03-19T04:34:38;8.20;;;4.10;;
39020;SDS011;25188;51.958;5.842;2023-03-19T04:37:04;7.63;;;4.22;;
39020;SDS011;25188;51.958;5.842;2023-03-19T04:39:30;7.93;;;3.90;;
39020;SDS011;25188;51.958;5.842;2023-03-19T04:41:55;8.37;;;4.60;;
39020;SDS011;25188;51.958;5.842;2023-03-19T04:44:21;9.07;;;4.43;;
39020;SDS011;25188;51.958;5.842;2023-03-19T04:46:47;7.80;;;3.97;;
39020;SDS011;25188;51.958;5.842;2023-03-19T04:49:13;6.77;;;4.27;;
39020;SDS011;25188;51.958;5.842;2023-03-19T04:51:39;8.27;;;3.83;;
39020;SDS011;25188;51.958;5.842;2023-03-19T04:54:06;8.13;;;4.60;;
39020;SDS011;25188;51.958;5.842;2023-03-19T04:56:32;7.53;;;4.83;;
39020;SDS011;25188;51.958;5.842;2023-03-19T04:58:58;10.73;;;4.85;;
39020;SDS011;25188;51.958;5.842;2023-03-19T05:01:23;7.93;;;5.30;;
39020;SDS011;25188;51.958;5.842;2023-03-19T05:03:50;8.07;;;5.07;;
39020;SDS011;25188;51.958;5.842;2023-03-19T05:06:15;9.43;;;5.73;;
39020;SDS011;25188;51.958;5.842;2023-03-19T05:08:41;10.23;;;6.10;;
39020;SDS011;25188;51.958;5.842;2023-03-19T05:11:07;11.80;;;6.07;;
39020;SDS011;25188;51.958;5.842;2023-03-19T05:13:32;10.57;;;6.10;;
39020;SDS011;25188;51.958;5.842;2023-03-19T05:15:58;11.05;;;6.53;;
39020;SDS011;25188;51.958;5.842;2023-03-19T05:18:24;12.50;;;6.50;;
39020;SDS011;25188;51.958;5.842;2023-03-19T05:20:50;9.40;;;5.87;;
39020;SDS011;25188;51.958;5.842;2023-03-19T05:23:16;11.13;;;6.53;;
39020;SDS011;25188;51.958;5.842;2023-03-19T05:25:42;10.23;;;5.67;;
39020;SDS011;25188;51.958;5.842;2023-03-19T05:28:07;11.33;;;6.57;;
39020;SDS011;25188;51.958;5.842;2023-03-19T05:30:34;12.37;;;7.67;;
39020;SDS011;25188;51.958;5.842;2023-03-19T05:33:00;11.98;;;7.47;;
39020;SDS011;25188;51.958;5.842;2023-03-19T05:35:27;10.30;;;6.90;;
39020;SDS011;25188;51.958;5.842;2023-03-19T05:37:53;14.97;;;9.60;;
39020;SDS011;25188;51.958;5.842;2023-03-19T05:40:20;13.40;;;8.27;;
39020;SDS011;25188;51.958;5.842;2023-03-19T05:42:48;14.60;;;9.77;;
39020;SDS011;25188;51.958;5.842;2023-03-19T05:45:14;14.93;;;9.32;;
39020;SDS011;25188;51.958;5.842;2023-03-19T05:47:41;15.73;;;10.57;;
39020;SDS011;25188;51.958;5.842;2023-03-19T05:50:07;20.40;;;12.57;;
39020;SDS011;25188;51.958;5.842;2023-03-19T05:52:34;15.27;;;10.53;;
39020;SDS011;25188;51.958;5.842;2023-03-19T05:55:00;15.30;;;10.80;;
39020;SDS011;25188;51.958;5.842;2023-03-19T05:57:26;16.37;;;11.10;;
39020;SDS011;25188;51.958;5.842;2023-03-19T05:59:52;17.13;;;11.13;;
39020;SDS011;25188;51.958;5.842;2023-03-19T06:02:17;15.97;;;10.57;;
39020;SDS011;25188;51.958;5.842;2023-03-19T06:04:43;17.20;;;11.20;;
39020;SDS011;25188;51.958;5.842;2023-03-19T06:07:09;18.13;;;11.47;;
39020;SDS011;25188;51.958;5.842;2023-03-19T06:09:34;14.97;;;10.23;;
39020;SDS011;25188;51.958;5.842;2023-03-19T06:12:00;20.38;;;12.48;;
39020;SDS011;25188;51.958;5.842;2023-03-19T06:14:26;19.07;;;11.83;;
39020;SDS011;25188;51.958;5.842;2023-03-19T06:16:51;17.27;;;12.43;;
39020;SDS011;25188;51.958;5.842;2023-03-19T06:19:17;19.67;;;12.77;;
39020;SDS011;25188;51.958;5.842;2023-03-19T06:21:43;18.75;;;11.20;;
39020;SDS011;25188;51.958;5.842;2023-03-19T06:24:08;18.35;;;12.48;;
39020;SDS011;25188;51.958;5.842;2023-03-19T06:26:34;18.52;;;11.65;;
39020;SDS011;25188;51.958;5.842;2023-03-19T06:29:01;19.60;;;12.80;;
39020;SDS011;25188;51.958;5.842;2023-03-19T06:31:27;18.57;;;12.40;;
39020;SDS011;25188;51.958;5.842;2023-03-19T06:33:53;19.83;;;13.07;;
39020;SDS011;25188;51.958;5.842;2023-03-19T06:36:19;19.27;;;12.33;;
39020;SDS011;25188;51.958;5.842;2023-03-19T06:38:45;18.48;;;12.23;;
39020;SDS011;25188;51.958;5.842;2023-03-19T06:41:11;18.20;;;12.27;;
39020;SDS011;25188;51.958;5.842;2023-03-19T06:43:36;19.77;;;12.67;;
39020;SDS011;25188;51.958;5.842;2023-03-19T06:46:05;19.30;;;13.67;;
39020;SDS011;25188;51.958;5.842;2023-03-19T06:48:31;22.90;;;15.57;;
39020;SDS011;25188;51.958;5.842;2023-03-19T06:50:58;20.07;;;13.27;;
39020;SDS011;25188;51.958;5.842;2023-03-19T06:53:23;19.17;;;13.27;;
39020;SDS011;25188;51.958;5.842;2023-03-19T06:55:50;17.13;;;12.32;;
39020;SDS011;25188;51.958;5.842;2023-03-19T06:58:15;19.38;;;12.48;;
39020;SDS011;25188;51.958;5.842;2023-03-19T07:00:41;19.02;;;12.32;;
39020;SDS011;25188;51.958;5.842;2023-03-19T07:03:07;17.90;;;12.15;;
39020;SDS011;25188;51.958;5.842;2023-03-19T07:05:34;16.98;;;11.27;;
39020;SDS011;25188;51.958;5.842;2023-03-19T07:08:00;17.08;;;10.90;;
39020;SDS011;25188;51.958;5.842;2023-03-19T07:10:26;16.20;;;10.38;;
39020;SDS011;25188;51.958;5.842;2023-03-19T07:12:51;12.80;;;9.68;;
39020;SDS011;25188;51.958;5.842;2023-03-19T07:15:17;14.95;;;9.70;;
39020;SDS011;25188;51.958;5.842;2023-03-19T07:17:45;17.33;;;10.02;;
39020;SDS011;25188;51.958;5.842;2023-03-19T07:20:11;13.45;;;8.43;;
39020;SDS011;25188;51.958;5.842;2023-03-19T07:22:38;15.48;;;9.02;;
39020;SDS011;25188;51.958;5.842;2023-03-19T07:25:04;12.15;;;8.57;;
39020;SDS011;25188;51.958;5.842;2023-03-19T07:27:30;11.40;;;7.18;;
39020;SDS011;25188;51.958;5.842;2023-03-19T07:29:56;11.20;;;6.60;;
39020;SDS011;25188;51.958;5.842;2023-03-19T07:32:21;10.90;;;6.93;;
39020;SDS011;25188;51.958;5.842;2023-03-19T07:34:47;12.05;;;7.40;;
39020;SDS011;25188;51.958;5.842;2023-03-19T07:37:13;10.93;;;7.25;;
39020;SDS011;25188;51.958;5.842;2023-03-19T07:39:39;14.68;;;7.57;;
39020;SDS011;25188;51.958;5.842;2023-03-19T07:42:05;13.02;;;8.48;;
39020;SDS011;25188;51.958;5.842;2023-03-19T07:44:31;16.45;;;9.20;;
39020;SDS011;25188;51.958;5.842;2023-03-19T07:46:57;15.27;;;9.48;;
39020;SDS011;25188;51.958;5.842;2023-03-19T07:49:23;14.57;;;10.13;;
39020;SDS011;25188;51.958;5.842;2023-03-19T07:51:49;14.07;;;10.10;;
39020;SDS011;25188;51.958;5.842;2023-03-19T07:54:15;14.43;;;9.57;;
39020;SDS011;25188;51.958;5.842;2023-03-19T07:56:41;13.05;;;8.77;;
39020;SDS011;25188;51.958;5.842;2023-03-19T07:59:07;12.98;;;7.93;;
39020;SDS011;25188;51.958;5.842;2023-03-19T08:01:32;12.13;;;7.95;;
39020;SDS011;25188;51.958;5.842;2023-03-19T08:03:58;15.00;;;8.23;;
39020;SDS011;25188;51.958;5.842;2023-03-19T08:06:24;14.63;;;8.55;;
39020;SDS011;25188;51.958;5.842;2023-03-19T08:08:50;14.82;;;9.77;;
39020;SDS011;25188;51.958;5.842;2023-03-19T08:11:16;17.00;;;9.63;;
39020;SDS011;25188;51.958;5.842;2023-03-19T08:13:41;16.95;;;10.23;;
39020;SDS011;25188;51.958;5.842;2023-03-19T08:16:07;12.60;;;8.73;;
39020;SDS011;25188;51.958;5.842;2023-03-19T08:18:34;13.75;;;9.70;;
39020;SDS011;25188;51.958;5.842;2023-03-19T08:21:00;16.15;;;10.52;;
39020;SDS011;25188;51.958;5.842;2023-03-19T08:23:25;18.52;;;9.93;;
39020;SDS011;25188;51.958;5.842;2023-03-19T08:25:51;16.48;;;10.55;;
39020;SDS011;25188;51.958;5.842;2023-03-19T08:28:18;14.05;;;9.82;;
39020;SDS011;25188;51.958;5.842;2023-03-19T08:30:44;17.65;;;10.82;;
39020;SDS011;25188;51.958;5.842;2023-03-19T08:33:10;15.70;;;10.55;;
39020;SDS011;25188;51.958;5.842;2023-03-19T08:35:36;18.08;;;9.52;;
39020;SDS011;25188;51.958;5.842;2023-03-19T08:38:01;15.82;;;8.85;;
39020;SDS011;25188;51.958;5.842;2023-03-19T08:40:27;13.45;;;8.77;;
39020;SDS011;25188;51.958;5.842;2023-03-19T08:42:53;14.30;;;8.35;;
39020;SDS011;25188;51.958;5.842;2023-03-19T08:45:20;17.08;;;9.55;;
39020;SDS011;25188;51.958;5.842;2023-03-19T08:47:46;15.98;;;9.13;;
39020;SDS011;25188;51.958;5.842;2023-03-19T08:50:12;14.13;;;7.53;;
39020;SDS011;25188;51.958;5.842;2023-03-19T08:52:38;15.60;;;9.32;;
39020;SDS011;25188;51.958;5.842;2023-03-19T08:55:04;13.88;;;8.95;;
39020;SDS011;25188;51.958;5.842;2023-03-19T08:57:32;17.88;;;9.60;;
39020;SDS011;25188;51.958;5.842;2023-03-19T08:59:58;18.83;;;11.63;;
39020;SDS011;25188;51.958;5.842;2023-03-19T09:02:24;18.42;;;12.60;;
39020;SDS011;25188;51.958;5.842;2023-03-19T09:04:50;16.88;;;11.90;;
39020;SDS011;25188;51.958;5.842;2023-03-19T09:07:16;16.15;;;10.98;;
39020;SDS011;25188;51.958;5.842;2023-03-19T09:09:42;16.48;;;12.55;;
39020;SDS011;25188;51.958;5.842;2023-03-19T09:12:13;18.27;;;11.98;;
39020;SDS011;25188;51.958;5.842;2023-03-19T09:14:40;18.00;;;12.70;;
39020;SDS011;25188;51.958;5.842;2023-03-19T09:17:07;21.20;;;13.82;;
39020;SDS011;25188;51.958;5.842;2023-03-19T09:19:33;18.42;;;13.57;;
39020;SDS011;25188;51.958;5.842;2023-03-19T09:21:59;25.02;;;14.88;;
39020;SDS011;25188;51.958;5.842;2023-03-19T09:24:25;20.88;;;14.80;;
39020;SDS011;25188;51.958;5.842;2023-03-19T09:26:51;18.20;;;14.00;;
39020;SDS011;25188;51.958;5.842;2023-03-19T09:29:17;20.20;;;14.98;;
39020;SDS011;25188;51.958;5.842;2023-03-19T09:31:43;20.45;;;15.18;;
39020;SDS011;25188;51.958;5.842;2023-03-19T09:34:08;18.13;;;14.15;;
39020;SDS011;25188;51.958;5.842;2023-03-19T09:36:35;20.65;;;14.63;;
39020;SDS011;25188;51.958;5.842;2023-03-19T09:39:01;18.90;;;13.00;;
39020;SDS011;25188;51.958;5.842;2023-03-19T09:41:34;19.25;;;13.82;;
39020;SDS011;25188;51.958;5.842;2023-03-19T09:44:12;19.77;;;14.85;;
39020;SDS011;25188;51.958;5.842;2023-03-19T09:47:03;18.52;;;13.93;;
39020;SDS011;25188;51.958;5.842;2023-03-19T09:49:56;18.52;;;13.63;;
39020;SDS011;25188;51.958;5.842;2023-03-19T09:54:55;17.55;;;13.43;;
39020;SDS011;25188;51.958;5.842;2023-03-19T09:57:24;18.63;;;13.02;;
39020;SDS011;25188;51.958;5.842;2023-03-19T09:59:53;15.55;;;10.95;;
39020;SDS011;25188;51.958;5.842;2023-03-19T10:11:09;19.25;;;13.27;;
39020;SDS011;25188;51.958;5.842;2023-03-19T10:14:04;14.90;;;11.65;;
39020;SDS011;25188;51.958;5.842;2023-03-19T10:16:38;13.80;;;11.55;;
39020;SDS011;25188;51.958;5.842;2023-03-19T10:19:07;16.05;;;10.80;;
39020;SDS011;25188;51.958;5.842;2023-03-19T10:21:42;13.90;;;10.02;;
39020;SDS011;25188;51.958;5.842;2023-03-19T10:24:33;15.93;;;9.88;;
39020;SDS011;25188;51.958;5.842;2023-03-19T10:27:17;13.30;;;9.48;;
39020;SDS011;25188;51.958;5.842;2023-03-19T10:29:45;9.90;;;8.23;;
39020;SDS011;25188;51.958;5.842;2023-03-19T10:35:07;12.80;;;8.45;;
39020;SDS011;25188;51.958;5.842;2023-03-19T10:37:42;13.38;;;8.80;;
39020;SDS011;25188;51.958;5.842;2023-03-19T10:40:13;13.63;;;8.88;;
39020;SDS011;25188;51.958;5.842;2023-03-19T10:45:24;13.82;;;9.60;;
39020;SDS011;25188;51.958;5.842;2023-03-19T10:47:56;11.75;;;8.07;;
39020;SDS011;25188;51.958;5.842;2023-03-19T10:53:03;13.98;;;7.32;;
39020;SDS011;25188;51.958;5.842;2023-03-19T10:55:31;9.63;;;6.15;;
39020;SDS011;25188;51.958;5.842;2023-03-19T10:58:04;9.85;;;6.28;;
39020;SDS011;25188;51.958;5.842;2023-03-19T11:01:07;9.97;;;7.07;;
39020;SDS011;25188;51.958;5.842;2023-03-19T11:03:51;11.45;;;7.18;;
39020;SDS011;25188;51.958;5.842;2023-03-19T11:06:25;12.48;;;6.78;;
39020;SDS011;25188;51.958;5.842;2023-03-19T11:09:00;9.88;;;6.55;;
39020;SDS011;25188;51.958;5.842;2023-03-19T11:11:42;8.57;;;6.00;;
39020;SDS011;25188;51.958;5.842;2023-03-19T11:14:14;8.40;;;5.93;;
39020;SDS011;25188;51.958;5.842;2023-03-19T11:16:53;8.20;;;5.88;;
39020;SDS011;25188;51.958;5.842;2023-03-19T11:19:22;10.05;;;6.43;;
39020;SDS011;25188;51.958;5.842;2023-03-19T11:24:38;10.23;;;5.72;;
39020;SDS011;25188;51.958;5.842;2023-03-19T11:27:06;8.38;;;5.63;;
39020;SDS011;25188;51.958;5.842;2023-03-19T11:29:34;8.57;;;5.32;;
39020;SDS011;25188;51.958;5.842;2023-03-19T11:37:23;15.65;;;8.07;;
39020;SDS011;25188;51.958;5.842;2023-03-19T11:40:02;11.65;;;7.90;;
39020;SDS011;25188;51.958;5.842;2023-03-19T11:48:11;13.43;;;8.98;;
39020;SDS011;25188;51.958;5.842;2023-03-19T11:50:47;16.38;;;9.98;;
39020;SDS011;25188;51.958;5.842;2023-03-19T11:53:34;18.85;;;12.63;;
39020;SDS011;25188;51.958;5.842;2023-03-19T11:58:49;26.92;;;16.35;;
39020;SDS011;25188;51.958;5.842;2023-03-19T12:24:16;19.85;;;11.98;;
39020;SDS011;25188;51.958;5.842;2023-03-19T12:27:06;25.20;;;15.20;;
39020;SDS011;25188;51.958;5.842;2023-03-19T12:35:52;15.57;;;9.77;;
39020;SDS011;25188;51.958;5.842;2023-03-19T12:41:24;17.15;;;9.85;;
39020;SDS011;25188;51.958;5.842;2023-03-19T12:44:12;14.93;;;9.20;;
39020;SDS011;25188;51.958;5.842;2023-03-19T12:46:56;14.57;;;8.52;;
39020;SDS011;25188;51.958;5.842;2023-03-19T12:49:40;18.05;;;9.65;;
39020;SDS011;25188;51.958;5.842;2023-03-19T12:52:19;16.05;;;8.73;;
39020;SDS011;25188;51.958;5.842;2023-03-19T12:55:01;15.45;;;9.30;;
39020;SDS011;25188;51.958;5.842;2023-03-19T13:00:14;16.17;;;9.55;;
39020;SDS011;25188;51.958;5.842;2023-03-19T13:11:24;11.75;;;6.80;;
39020;SDS011;25188;51.958;5.842;2023-03-19T13:14:06;10.90;;;6.50;;
39020;SDS011;25188;51.958;5.842;2023-03-19T13:16:42;13.85;;;7.32;;
39020;SDS011;25188;51.958;5.842;2023-03-19T13:22:13;12.90;;;7.50;;
39020;SDS011;25188;51.958;5.842;2023-03-19T13:24:59;14.85;;;7.47;;
39020;SDS011;25188;51.958;5.842;2023-03-19T13:27:30;12.80;;;7.30;;
39020;SDS011;25188;51.958;5.842;2023-03-19T13:32:36;13.32;;;8.40;;
39020;SDS011;25188;51.958;5.842;2023-03-19T13:35:07;12.85;;;6.97;;
39020;SDS011;25188;51.958;5.842;2023-03-19T13:37:42;12.32;;;7.53;;
39020;SDS011;25188;51.958;5.842;2023-03-19T13:40:34;11.30;;;6.18;;
39020;SDS011;25188;51.958;5.842;2023-03-19T13:43:41;14.00;;;5.90;;
39020;SDS011;25188;51.958;5.842;2023-03-19T13:48:37;8.73;;;4.72;;
39020;SDS011;25188;51.958;5.842;2023-03-19T13:54:03;9.68;;;5.05;;
39020;SDS011;25188;51.958;5.842;2023-03-19T13:57:21;8.50;;;4.53;;
39020;SDS011;25188;51.958;5.842;2023-03-19T13:59:43;9.02;;;4.72;;
39020;SDS011;25188;51.958;5.842;2023-03-19T14:05:31;7.85;;;4.00;;
39020;SDS011;25188;51.958;5.842;2023-03-19T14:07:43;8.77;;;3.88;;
39020;SDS011;25188;51.958;5.842;2023-03-19T14:13:02;6.63;;;3.63;;
39020;SDS011;25188;51.958;5.842;2023-03-19T14:15:46;8.45;;;4.63;;
39020;SDS011;25188;51.958;5.842;2023-03-19T14:23:21;10.40;;;4.68;;
39020;SDS011;25188;51.958;5.842;2023-03-19T14:28:31;8.68;;;4.20;;
39020;SDS011;25188;51.958;5.842;2023-03-19T14:31:27;7.47;;;4.10;;
39020;SDS011;25188;51.958;5.842;2023-03-19T14:39:42;9.57;;;5.30;;
39020;SDS011;25188;51.958;5.842;2023-03-19T14:45:08;9.05;;;5.22;;
39020;SDS011;25188;51.958;5.842;2023-03-19T14:53:42;11.00;;;5.65;;
39020;SDS011;25188;51.958;5.842;2023-03-19T14:56:33;10.98;;;5.93;;
39020;SDS011;25188;51.958;5.842;2023-03-19T14:59:00;10.32;;;6.22;;
39020;SDS011;25188;51.958;5.842;2023-03-19T15:01:32;11.35;;;7.38;;
39020;SDS011;25188;51.958;5.842;2023-03-19T15:04:05;12.63;;;7.35;;
39020;SDS011;25188;51.958;5.842;2023-03-19T15:06:37;13.60;;;8.23;;
39020;SDS011;25188;51.958;5.842;2023-03-19T15:14:45;10.55;;;6.90;;
39020;SDS011;25188;51.958;5.842;2023-03-19T15:17:22;13.40;;;7.95;;
39020;SDS011;25188;51.958;5.842;2023-03-19T15:19:49;13.90;;;8.73;;
39020;SDS011;25188;51.958;5.842;2023-03-19T15:22:20;14.15;;;9.13;;
39020;SDS011;25188;51.958;5.842;2023-03-19T15:24:50;13.77;;;8.73;;
39020;SDS011;25188;51.958;5.842;2023-03-19T15:29:42;14.35;;;7.13;;
39020;SDS011;25188;51.958;5.842;2023-03-19T15:32:08;13.63;;;8.52;;
39020;SDS011;25188;51.958;5.842;2023-03-19T15:34:34;13.27;;;9.10;;
39020;SDS011;25188;51.958;5.842;2023-03-19T15:37:08;15.05;;;8.88;;
39020;SDS011;25188;51.958;5.842;2023-03-19T15:39:40;15.43;;;9.13;;
39020;SDS011;25188;51.958;5.842;2023-03-19T15:42:13;15.07;;;9.20;;
39020;SDS011;25188;51.958;5.842;2023-03-19T15:45:23;15.48;;;8.75;;
39020;SDS011;25188;51.958;5.842;2023-03-19T15:47:31;14.40;;;8.25;;
39020;SDS011;25188;51.958;5.842;2023-03-19T15:49:58;13.13;;;8.48;;
39020;SDS011;25188;51.958;5.842;2023-03-19T15:52:32;15.70;;;9.20;;
39020;SDS011;25188;51.958;5.842;2023-03-19T15:55:02;13.25;;;8.10;;
39020;SDS011;25188;51.958;5.842;2023-03-19T15:57:28;13.52;;;8.15;;
39020;SDS011;25188;51.958;5.842;2023-03-19T15:59:55;15.77;;;7.90;;
39020;SDS011;25188;51.958;5.842;2023-03-19T16:02:27;13.10;;;8.00;;
39020;SDS011;25188;51.958;5.842;2023-03-19T16:04:55;13.55;;;8.27;;
39020;SDS011;25188;51.958;5.842;2023-03-19T16:07:23;14.23;;;8.13;;
39020;SDS011;25188;51.958;5.842;2023-03-19T16:09:51;12.82;;;7.05;;
39020;SDS011;25188;51.958;5.842;2023-03-19T16:15:21;14.38;;;8.10;;
39020;SDS011;25188;51.958;5.842;2023-03-19T16:17:47;15.95;;;8.52;;
39020;SDS011;25188;51.958;5.842;2023-03-19T16:20:16;14.95;;;8.65;;
39020;SDS011;25188;51.958;5.842;2023-03-19T16:22:43;14.43;;;8.45;;
39020;SDS011;25188;51.958;5.842;2023-03-19T16:25:22;16.45;;;8.70;;
39020;SDS011;25188;51.958;5.842;2023-03-19T16:27:54;14.02;;;8.40;;
39020;SDS011;25188;51.958;5.842;2023-03-19T16:30:20;12.68;;;8.02;;
39020;SDS011;25188;51.958;5.842;2023-03-19T16:32:58;10.90;;;6.88;;
39020;SDS011;25188;51.958;5.842;2023-03-19T16:35:30;13.10;;;7.55;;
39020;SDS011;25188;51.958;5.842;2023-03-19T16:38:13;12.52;;;6.93;;
39020;SDS011;25188;51.958;5.842;2023-03-19T16:40:49;11.73;;;6.85;;
39020;SDS011;25188;51.958;5.842;2023-03-19T16:43:35;9.68;;;6.18;;
39020;SDS011;25188;51.958;5.842;2023-03-19T16:46:03;11.63;;;7.30;;
39020;SDS011;25188;51.958;5.842;2023-03-19T16:48:32;11.48;;;6.47;;
39020;SDS011;25188;51.958;5.842;2023-03-19T16:50:58;11.57;;;6.82;;
39020;SDS011;25188;51.958;5.842;2023-03-19T16:53:25;14.55;;;8.20;;
39020;SDS011;25188;51.958;5.842;2023-03-19T16:55:54;14.95;;;8.20;;
39020;SDS011;25188;51.958;5.842;2023-03-19T16:58:26;14.55;;;9.07;;
39020;SDS011;25188;51.958;5.842;2023-03-19T17:00:53;14.90;;;9.00;;
39020;SDS011;25188;51.958;5.842;2023-03-19T17:03:19;15.70;;;9.38;;